Aérodrome :
LOGIN :

S'inscrire | Disclaimer

   EN    FR    IT 

 










Légende :    VFR   VFR Marginal   IFR   IFR Intensif   IFR Très Intensif
Visi : 
Plafond : 
>= 8 km
>= 3000ft
5 à 8 km
1000 à 3000 ft
1500m à 5 km
500 à 1000 ft
800 à 1500m
200 à 500 ft
< 800m
< 200 ft
Symboles :   Orages  Brouillard  Fortes neiges  Fortes précipitations  Vent > 20 kt
SIGMETs :   Divers  Orages  Givrage  Turbulence  Onde Orograph.  Cendres Volcan.







- Altitude de l'aérodrome : 768 ft
- Code IATA : MXP


LIMC - Milano Malpensa

DERNIER METAR :
  • 211820Z 21011KT CAVOK 20/13 Q1010 NOSIG

METARs EXPIRÉS :
  • 211750Z 20010KT CAVOK 21/13 Q1009 NOSIG
  • 211720Z 21011KT CAVOK 22/13 Q1009 NOSIG
  • 211620Z 23010KT 200V260 CAVOK 23/14 Q1009 NOSIG
  • 211550Z 23012KT 9999 FEW050 23/14 Q1009 NOSIG

TAF TAF LIMC
Valide du 21 à 18h jusqu'au 23 à 00h UTC


211700Z 2118/2224 23007KT CAVOK
Pas de NOTAMs connus pour ce terrain.
1 SIGMET publié pour la FIR Milano (LIMM) :
 
Orages fréquents
LIMM SIGMET 1 VALID 211800/212000 LIIP
LIMM MILANO FIR FRQ TS OBS WI N4630 E00921 - N4607 E00908 - N4547 E00903 - N4623 E00822 - N4601 E00805 - N4537 E00813 - N4500 E00916 - N4424 E01112 - N4442 E01154 - N4508 E01153 - N4526 E01213 - N4626 E01023 - N4636 E01008 - N4610 E01006 - N4616 E00935 - N4630 E00921 MOV ESE NC=



MET'MAP, la Météo Aéronautique d'un coup d'oeil ! - Copyright ORBIFLY Décembre 2007 - Disclaimer

ORBIFLY MET'MAP TEAM :

Programmation & Développement : Alexandra Zaïnal
Conception & Développement : Baudouin d'Aumeries
Co-Programmation & Développement : Marc-Olivier Méhu
Soutien technique & logistique : Manuel Goepfert

Contact : metmap@orbifly.com




SOURCES & CREDITS :

   NOAA